Reese Air Force Base, Texas
Current Conditions -  °F | °C
As of 4:53 AM on Wednesday 26 Nov 2014 (Local Time) from KLBB Reporting Station
Few Clouds Few Clouds  
Wind Chill: 35°   Ceiling: Unl
Heat Index: 41°   Visibility: 10mi
Dew Point: 17°   Wind: 9mph
Humidity: 38%   Direction: 310°NW
Pressure: 30.08"   Gusts: NA
Location:  33.5936°N, 102.0291°W
Report Text: KLBB 261053Z 31008KT 10SM FEW300 05/M08 A3008 RMK AO2 SLP174 T00501083
Loading
Personal Weather Stations






























Interactive Weather Map New forecast layout! Learn more

10-Day Weather Forecast

Advertisements
Track Severe Weather on mobile